sensor_id;sensor_type;location;lat;lon;timestamp;P1;durP1;ratioP1;P2;durP2;ratioP2
25531;SDS011;13429;48.816;9.118;2022-10-18T00:13:12;6.95;;;3.75;;
25531;SDS011;13429;48.816;9.118;2022-10-18T00:18:42;11.82;;;4.82;;
25531;SDS011;13429;48.816;9.118;2022-10-18T00:24:12;9.07;;;3.95;;
25531;SDS011;13429;48.816;9.118;2022-10-18T00:29:42;11.40;;;6.03;;
25531;SDS011;13429;48.816;9.118;2022-10-18T00:35:11;15.13;;;9.05;;
25531;SDS011;13429;48.816;9.118;2022-10-18T00:40:41;15.20;;;7.28;;
25531;SDS011;13429;48.816;9.118;2022-10-18T00:46:10;13.55;;;7.10;;
25531;SDS011;13429;48.816;9.118;2022-10-18T00:51:43;13.48;;;7.35;;
25531;SDS011;13429;48.816;9.118;2022-10-18T00:57:13;10.27;;;6.20;;
25531;SDS011;13429;48.816;9.118;2022-10-18T01:02:43;12.35;;;5.45;;
25531;SDS011;13429;48.816;9.118;2022-10-18T01:11:53;9.95;;;6.18;;
25531;SDS011;13429;48.816;9.118;2022-10-18T01:29:02;8.35;;;5.40;;
25531;SDS011;13429;48.816;9.118;2022-10-18T01:34:58;6.85;;;4.03;;
25531;SDS011;13429;48.816;9.118;2022-10-18T01:40:28;8.52;;;4.72;;
25531;SDS011;13429;48.816;9.118;2022-10-18T01:45:58;13.18;;;5.55;;
25531;SDS011;13429;48.816;9.118;2022-10-18T01:51:29;10.95;;;4.70;;
25531;SDS011;13429;48.816;9.118;2022-10-18T02:17:11;10.23;;;4.90;;
25531;SDS011;13429;48.816;9.118;2022-10-18T02:22:42;13.75;;;5.68;;
25531;SDS011;13429;48.816;9.118;2022-10-18T02:28:13;9.50;;;4.18;;
25531;SDS011;13429;48.816;9.118;2022-10-18T02:33:45;13.18;;;5.28;;
25531;SDS011;13429;48.816;9.118;2022-10-18T02:39:17;11.52;;;4.78;;
25531;SDS011;13429;48.816;9.118;2022-10-18T02:44:47;13.75;;;5.55;;
25531;SDS011;13429;48.816;9.118;2022-10-18T02:50:17;13.95;;;5.57;;
25531;SDS011;13429;48.816;9.118;2022-10-18T02:55:46;11.15;;;4.72;;
25531;SDS011;13429;48.816;9.118;2022-10-18T03:01:16;12.70;;;5.50;;
25531;SDS011;13429;48.816;9.118;2022-10-18T03:06:45;12.50;;;4.97;;
25531;SDS011;13429;48.816;9.118;2022-10-18T03:15:45;7.78;;;3.60;;
25531;SDS011;13429;48.816;9.118;2022-10-18T03:21:15;8.10;;;4.28;;
25531;SDS011;13429;48.816;9.118;2022-10-18T03:26:44;6.57;;;4.05;;
25531;SDS011;13429;48.816;9.118;2022-10-18T03:32:14;8.25;;;4.28;;
25531;SDS011;13429;48.816;9.118;2022-10-18T03:37:44;11.48;;;4.20;;
25531;SDS011;13429;48.816;9.118;2022-10-18T03:43:13;5.57;;;3.58;;
25531;SDS011;13429;48.816;9.118;2022-10-18T03:48:43;7.10;;;3.90;;
25531;SDS011;13429;48.816;9.118;2022-10-18T03:54:12;3.72;;;3.22;;
25531;SDS011;13429;48.816;9.118;2022-10-18T03:59:41;5.53;;;2.92;;
25531;SDS011;13429;48.816;9.118;2022-10-18T04:05:11;5.30;;;3.35;;
25531;SDS011;13429;48.816;9.118;2022-10-18T04:10:41;9.27;;;3.42;;
25531;SDS011;13429;48.816;9.118;2022-10-18T04:19:41;6.13;;;3.80;;
25531;SDS011;13429;48.816;9.118;2022-10-18T04:25:10;5.05;;;3.40;;
25531;SDS011;13429;48.816;9.118;2022-10-18T04:30:40;8.02;;;4.25;;
25531;SDS011;13429;48.816;9.118;2022-10-18T04:36:09;5.32;;;4.10;;
25531;SDS011;13429;48.816;9.118;2022-10-18T04:41:38;15.98;;;3.92;;
25531;SDS011;13429;48.816;9.118;2022-10-18T04:47:08;10.02;;;3.88;;
25531;SDS011;13429;48.816;9.118;2022-10-18T04:52:37;7.85;;;3.97;;
25531;SDS011;13429;48.816;9.118;2022-10-18T04:58:07;5.78;;;2.95;;
25531;SDS011;13429;48.816;9.118;2022-10-18T05:03:37;4.82;;;2.78;;
25531;SDS011;13429;48.816;9.118;2022-10-18T05:09:06;6.70;;;3.15;;
25531;SDS011;13429;48.816;9.118;2022-10-18T05:14:36;9.57;;;3.60;;
25531;SDS011;13429;48.816;9.118;2022-10-18T05:23:36;5.07;;;3.65;;
25531;SDS011;13429;48.816;9.118;2022-10-18T05:29:05;7.78;;;3.50;;
25531;SDS011;13429;48.816;9.118;2022-10-18T05:34:35;6.43;;;3.08;;
25531;SDS011;13429;48.816;9.118;2022-10-18T05:40:05;4.57;;;2.95;;
25531;SDS011;13429;48.816;9.118;2022-10-18T05:45:34;7.88;;;2.95;;
25531;SDS011;13429;48.816;9.118;2022-10-18T05:51:04;3.95;;;3.13;;
25531;SDS011;13429;48.816;9.118;2022-10-18T05:56:33;8.00;;;3.10;;
25531;SDS011;13429;48.816;9.118;2022-10-18T06:02:03;3.65;;;2.80;;
25531;SDS011;13429;48.816;9.118;2022-10-18T06:07:32;6.88;;;2.90;;
25531;SDS011;13429;48.816;9.118;2022-10-18T06:13:02;5.70;;;3.10;;
25531;SDS011;13429;48.816;9.118;2022-10-18T06:18:31;8.20;;;2.83;;
25531;SDS011;13429;48.816;9.118;2022-10-18T06:27:32;5.65;;;3.17;;
25531;SDS011;13429;48.816;9.118;2022-10-18T06:33:02;4.85;;;2.72;;
25531;SDS011;13429;48.816;9.118;2022-10-18T06:38:31;7.85;;;3.22;;
25531;SDS011;13429;48.816;9.118;2022-10-18T06:44:01;7.88;;;3.28;;
25531;SDS011;13429;48.816;9.118;2022-10-18T06:49:40;4.65;;;2.72;;
25531;SDS011;13429;48.816;9.118;2022-10-18T06:55:09;6.68;;;2.90;;
25531;SDS011;13429;48.816;9.118;2022-10-18T07:00:38;5.45;;;2.78;;
25531;SDS011;13429;48.816;9.118;2022-10-18T07:06:07;8.55;;;3.30;;
25531;SDS011;13429;48.816;9.118;2022-10-18T07:11:37;8.05;;;2.90;;
25531;SDS011;13429;48.816;9.118;2022-10-18T07:17:06;3.53;;;2.30;;
25531;SDS011;13429;48.816;9.118;2022-10-18T07:22:36;6.20;;;3.20;;
25531;SDS011;13429;48.816;9.118;2022-10-18T07:31:36;6.85;;;2.95;;
25531;SDS011;13429;48.816;9.118;2022-10-18T07:37:06;4.82;;;2.90;;
25531;SDS011;13429;48.816;9.118;2022-10-18T07:42:36;6.85;;;2.50;;
25531;SDS011;13429;48.816;9.118;2022-10-18T07:48:06;6.85;;;3.10;;
25531;SDS011;13429;48.816;9.118;2022-10-18T07:53:36;7.50;;;3.67;;
25531;SDS011;13429;48.816;9.118;2022-10-18T07:59:05;4.57;;;2.58;;
25531;SDS011;13429;48.816;9.118;2022-10-18T08:04:35;6.32;;;2.85;;
25531;SDS011;13429;48.816;9.118;2022-10-18T08:10:05;9.35;;;2.83;;
25531;SDS011;13429;48.816;9.118;2022-10-18T08:15:34;7.68;;;3.10;;
25531;SDS011;13429;48.816;9.118;2022-10-18T08:21:11;6.63;;;3.08;;
25531;SDS011;13429;48.816;9.118;2022-10-18T08:26:41;7.03;;;3.20;;
25531;SDS011;13429;48.816;9.118;2022-10-18T08:35:41;11.57;;;3.20;;
25531;SDS011;13429;48.816;9.118;2022-10-18T08:46:50;6.82;;;3.28;;
25531;SDS011;13429;48.816;9.118;2022-10-18T08:52:02;7.07;;;3.17;;
25531;SDS011;13429;48.816;9.118;2022-10-18T08:57:32;7.72;;;3.95;;
25531;SDS011;13429;48.816;9.118;2022-10-18T09:03:05;7.93;;;3.95;;
25531;SDS011;13429;48.816;9.118;2022-10-18T09:20:23;10.30;;;3.20;;
25531;SDS011;13429;48.816;9.118;2022-10-18T09:25:54;6.60;;;3.50;;
25531;SDS011;13429;48.816;9.118;2022-10-18T09:37:32;11.05;;;3.63;;
25531;SDS011;13429;48.816;9.118;2022-10-18T09:43:08;6.18;;;3.25;;
25531;SDS011;13429;48.816;9.118;2022-10-18T09:48:49;9.98;;;3.92;;
25531;SDS011;13429;48.816;9.118;2022-10-18T09:54:22;9.95;;;3.17;;
25531;SDS011;13429;48.816;9.118;2022-10-18T09:59:52;9.13;;;3.42;;
25531;SDS011;13429;48.816;9.118;2022-10-18T10:05:21;5.60;;;3.65;;
25531;SDS011;13429;48.816;9.118;2022-10-18T10:10:51;7.38;;;3.17;;
25531;SDS011;13429;48.816;9.118;2022-10-18T10:16:20;8.27;;;3.38;;
25531;SDS011;13429;48.816;9.118;2022-10-18T10:21:52;6.05;;;3.40;;
25531;SDS011;13429;48.816;9.118;2022-10-18T10:27:30;6.80;;;3.13;;
25531;SDS011;13429;48.816;9.118;2022-10-18T10:42:11;4.65;;;2.40;;
25531;SDS011;13429;48.816;9.118;2022-10-18T10:47:41;6.30;;;3.30;;
25531;SDS011;13429;48.816;9.118;2022-10-18T10:58:56;6.50;;;2.90;;
25531;SDS011;13429;48.816;9.118;2022-10-18T11:04:29;7.47;;;3.38;;
25531;SDS011;13429;48.816;9.118;2022-10-18T11:10:07;5.53;;;2.72;;
25531;SDS011;13429;48.816;9.118;2022-10-18T11:21:46;5.43;;;2.92;;
25531;SDS011;13429;48.816;9.118;2022-10-18T11:27:24;9.50;;;3.15;;
25531;SDS011;13429;48.816;9.118;2022-10-18T11:41:54;10.73;;;2.80;;
25531;SDS011;13429;48.816;9.118;2022-10-18T11:53:33;2.85;;;2.15;;
25531;SDS011;13429;48.816;9.118;2022-10-18T12:04:51;3.72;;;2.05;;
25531;SDS011;13429;48.816;9.118;2022-10-18T12:10:23;7.32;;;2.55;;
25531;SDS011;13429;48.816;9.118;2022-10-18T12:15:53;7.72;;;2.58;;
25531;SDS011;13429;48.816;9.118;2022-10-18T12:21:24;7.70;;;2.35;;
25531;SDS011;13429;48.816;9.118;2022-10-18T12:26:56;7.00;;;1.70;;
25531;SDS011;13429;48.816;9.118;2022-10-18T12:38:36;5.63;;;2.30;;
25531;SDS011;13429;48.816;9.118;2022-10-18T12:44:23;6.53;;;3.25;;
25531;SDS011;13429;48.816;9.118;2022-10-18T12:49:57;9.38;;;3.75;;
25531;SDS011;13429;48.816;9.118;2022-10-18T12:55:29;13.18;;;3.50;;
25531;SDS011;13429;48.816;9.118;2022-10-18T13:01:00;7.28;;;2.92;;
25531;SDS011;13429;48.816;9.118;2022-10-18T13:07:10;5.13;;;2.60;;
25531;SDS011;13429;48.816;9.118;2022-10-18T13:12:49;5.18;;;2.28;;
25531;SDS011;13429;48.816;9.118;2022-10-18T13:18:25;9.68;;;1.85;;
25531;SDS011;13429;48.816;9.118;2022-10-18T13:24:03;6.72;;;1.67;;
25531;SDS011;13429;48.816;9.118;2022-10-18T13:29:40;5.60;;;1.58;;
25531;SDS011;13429;48.816;9.118;2022-10-18T13:44:37;5.13;;;1.92;;
25531;SDS011;13429;48.816;9.118;2022-10-18T13:50:16;5.18;;;2.47;;
25531;SDS011;13429;48.816;9.118;2022-10-18T13:55:59;6.15;;;2.53;;
25531;SDS011;13429;48.816;9.118;2022-10-18T14:06:42;6.63;;;2.85;;
25531;SDS011;13429;48.816;9.118;2022-10-18T14:18:01;8.90;;;2.42;;
25531;SDS011;13429;48.816;9.118;2022-10-18T14:23:39;9.90;;;2.80;;
25531;SDS011;13429;48.816;9.118;2022-10-18T14:29:17;6.57;;;2.28;;
25531;SDS011;13429;48.816;9.118;2022-10-18T14:38:13;5.90;;;2.67;;
25531;SDS011;13429;48.816;9.118;2022-10-18T14:43:43;6.13;;;2.45;;
25531;SDS011;13429;48.816;9.118;2022-10-18T14:49:13;5.22;;;2.60;;
25531;SDS011;13429;48.816;9.118;2022-10-18T14:54:43;12.98;;;2.53;;
25531;SDS011;13429;48.816;9.118;2022-10-18T15:00:19;4.70;;;2.35;;
25531;SDS011;13429;48.816;9.118;2022-10-18T15:11:22;5.18;;;2.75;;
25531;SDS011;13429;48.816;9.118;2022-10-18T15:16:53;4.95;;;2.53;;
25531;SDS011;13429;48.816;9.118;2022-10-18T15:22:25;2.83;;;2.47;;
25531;SDS011;13429;48.816;9.118;2022-10-18T15:27:56;5.38;;;2.75;;
25531;SDS011;13429;48.816;9.118;2022-10-18T15:33:25;5.82;;;3.17;;
25531;SDS011;13429;48.816;9.118;2022-10-18T15:42:36;5.35;;;2.67;;
25531;SDS011;13429;48.816;9.118;2022-10-18T15:53:50;8.85;;;3.33;;
25531;SDS011;13429;48.816;9.118;2022-10-18T15:59:24;4.97;;;3.50;;
25531;SDS011;13429;48.816;9.118;2022-10-18T16:04:54;7.10;;;3.55;;
25531;SDS011;13429;48.816;9.118;2022-10-18T16:10:24;5.15;;;2.80;;
25531;SDS011;13429;48.816;9.118;2022-10-18T16:15:53;6.75;;;3.40;;
25531;SDS011;13429;48.816;9.118;2022-10-18T16:26:52;7.95;;;3.90;;
25531;SDS011;13429;48.816;9.118;2022-10-18T16:32:22;6.65;;;3.40;;
25531;SDS011;13429;48.816;9.118;2022-10-18T16:37:51;4.53;;;3.28;;
25531;SDS011;13429;48.816;9.118;2022-10-18T16:43:21;4.75;;;3.72;;
25531;SDS011;13429;48.816;9.118;2022-10-18T16:48:51;9.25;;;3.78;;
25531;SDS011;13429;48.816;9.118;2022-10-18T16:54:20;5.85;;;3.83;;
25531;SDS011;13429;48.816;9.118;2022-10-18T16:59:50;5.80;;;3.65;;
25531;SDS011;13429;48.816;9.118;2022-10-18T17:05:20;4.85;;;3.42;;
25531;SDS011;13429;48.816;9.118;2022-10-18T17:10:51;9.82;;;4.35;;
25531;SDS011;13429;48.816;9.118;2022-10-18T17:16:25;7.85;;;3.88;;
25531;SDS011;13429;48.816;9.118;2022-10-18T17:21:55;4.43;;;3.85;;
25531;SDS011;13429;48.816;9.118;2022-10-18T17:27:25;7.18;;;3.90;;
25531;SDS011;13429;48.816;9.118;2022-10-18T17:32:55;9.68;;;4.30;;
25531;SDS011;13429;48.816;9.118;2022-10-18T17:44:32;6.28;;;3.65;;
25531;SDS011;13429;48.816;9.118;2022-10-18T17:50:01;7.95;;;4.88;;
25531;SDS011;13429;48.816;9.118;2022-10-18T17:55:32;7.13;;;4.63;;
25531;SDS011;13429;48.816;9.118;2022-10-18T18:01:12;12.90;;;4.75;;
25531;SDS011;13429;48.816;9.118;2022-10-18T18:06:41;5.10;;;4.13;;
25531;SDS011;13429;48.816;9.118;2022-10-18T18:12:12;4.60;;;4.00;;
25531;SDS011;13429;48.816;9.118;2022-10-18T18:17:42;9.80;;;5.00;;
25531;SDS011;13429;48.816;9.118;2022-10-18T18:23:11;7.90;;;4.63;;
25531;SDS011;13429;48.816;9.118;2022-10-18T18:28:41;9.07;;;5.38;;
25531;SDS011;13429;48.816;9.118;2022-10-18T18:34:11;7.90;;;5.25;;
25531;SDS011;13429;48.816;9.118;2022-10-18T18:43:15;8.05;;;5.32;;
25531;SDS011;13429;48.816;9.118;2022-10-18T18:48:45;9.15;;;6.28;;
25531;SDS011;13429;48.816;9.118;2022-10-18T18:54:14;8.02;;;5.78;;
25531;SDS011;13429;48.816;9.118;2022-10-18T18:59:50;12.10;;;6.47;;
25531;SDS011;13429;48.816;9.118;2022-10-18T19:05:20;13.23;;;7.60;;
25531;SDS011;13429;48.816;9.118;2022-10-18T19:10:49;8.95;;;6.43;;
25531;SDS011;13429;48.816;9.118;2022-10-18T19:27:19;8.65;;;6.38;;
25531;SDS011;13429;48.816;9.118;2022-10-18T19:32:49;7.68;;;6.25;;
25531;SDS011;13429;48.816;9.118;2022-10-18T19:38:23;8.20;;;6.25;;
25531;SDS011;13429;48.816;9.118;2022-10-18T19:47:23;8.15;;;5.68;;
25531;SDS011;13429;48.816;9.118;2022-10-18T19:52:52;12.52;;;7.28;;
25531;SDS011;13429;48.816;9.118;2022-10-18T19:58:22;14.57;;;6.65;;
25531;SDS011;13429;48.816;9.118;2022-10-18T20:03:51;8.80;;;5.88;;
25531;SDS011;13429;48.816;9.118;2022-10-18T20:09:21;15.38;;;7.65;;
25531;SDS011;13429;48.816;9.118;2022-10-18T20:14:50;10.95;;;7.45;;
25531;SDS011;13429;48.816;9.118;2022-10-18T20:20:20;11.70;;;7.53;;
25531;SDS011;13429;48.816;9.118;2022-10-18T20:25:59;10.07;;;7.70;;
25531;SDS011;13429;48.816;9.118;2022-10-18T20:31:30;12.68;;;6.82;;
25531;SDS011;13429;48.816;9.118;2022-10-18T20:37:00;11.65;;;7.85;;
25531;SDS011;13429;48.816;9.118;2022-10-18T20:42:29;10.52;;;7.30;;
25531;SDS011;13429;48.816;9.118;2022-10-18T20:51:32;10.73;;;6.82;;
25531;SDS011;13429;48.816;9.118;2022-10-18T20:57:01;12.02;;;5.97;;
25531;SDS011;13429;48.816;9.118;2022-10-18T21:02:31;14.27;;;8.18;;
25531;SDS011;13429;48.816;9.118;2022-10-18T21:08:00;12.50;;;7.95;;
25531;SDS011;13429;48.816;9.118;2022-10-18T21:13:30;11.75;;;6.97;;
25531;SDS011;13429;48.816;9.118;2022-10-18T21:19:03;12.75;;;7.80;;
25531;SDS011;13429;48.816;9.118;2022-10-18T21:24:32;10.73;;;6.75;;
25531;SDS011;13429;48.816;9.118;2022-10-18T21:30:02;10.80;;;6.70;;
25531;SDS011;13429;48.816;9.118;2022-10-18T21:35:35;10.88;;;7.22;;
25531;SDS011;13429;48.816;9.118;2022-10-18T21:41:08;11.25;;;7.18;;
25531;SDS011;13429;48.816;9.118;2022-10-18T21:46:38;14.40;;;7.90;;
25531;SDS011;13429;48.816;9.118;2022-10-18T21:55:39;15.52;;;6.53;;
25531;SDS011;13429;48.816;9.118;2022-10-18T22:01:12;8.80;;;5.88;;
25531;SDS011;13429;48.816;9.118;2022-10-18T22:06:42;11.02;;;5.75;;
25531;SDS011;13429;48.816;9.118;2022-10-18T22:12:12;6.88;;;5.18;;
25531;SDS011;13429;48.816;9.118;2022-10-18T22:17:42;13.80;;;5.82;;
25531;SDS011;13429;48.816;9.118;2022-10-18T22:23:11;10.13;;;5.55;;
25531;SDS011;13429;48.816;9.118;2022-10-18T22:28:41;11.30;;;6.15;;
25531;SDS011;13429;48.816;9.118;2022-10-18T22:34:12;11.75;;;6.03;;
25531;SDS011;13429;48.816;9.118;2022-10-18T22:39:41;7.38;;;5.43;;
25531;SDS011;13429;48.816;9.118;2022-10-18T22:45:11;9.95;;;6.13;;
25531;SDS011;13429;48.816;9.118;2022-10-18T22:50:40;9.50;;;5.40;;
25531;SDS011;13429;48.816;9.118;2022-10-18T22:59:40;10.93;;;4.80;;
25531;SDS011;13429;48.816;9.118;2022-10-18T23:05:09;7.63;;;5.50;;
25531;SDS011;13429;48.816;9.118;2022-10-18T23:10:40;7.35;;;4.65;;
25531;SDS011;13429;48.816;9.118;2022-10-18T23:16:09;11.73;;;6.25;;
25531;SDS011;13429;48.816;9.118;2022-10-18T23:21:39;9.43;;;5.30;;
25531;SDS011;13429;48.816;9.118;2022-10-18T23:27:09;13.65;;;8.00;;
25531;SDS011;13429;48.816;9.118;2022-10-18T23:32:38;17.20;;;8.40;;
25531;SDS011;13429;48.816;9.118;2022-10-18T23:38:08;12.77;;;7.07;;
25531;SDS011;13429;48.816;9.118;2022-10-18T23:43:38;8.73;;;6.10;;
25531;SDS011;13429;48.816;9.118;2022-10-18T23:49:07;11.77;;;5.63;;
25531;SDS011;13429;48.816;9.118;2022-10-18T23:54:37;10.65;;;6.05;;
